Flight Track Log - Related Links

Times and Time Zones

All times are in EDT time to prevent confusion due to time zone crossing. See the KAP945 flight status page for this flight to view local times or setup timezone preferences in your user account.

Time Position Orientation Groundspeed Altitude Reporting Facility
EDT Latitude Longitude Course Direction KTS MPH feet Rate Location/Type
Fri 09:09:50 AM 42.3500 -71.0167 270° West 119 137 400  Level KA90
Fri 09:10:57 AM 42.3500 -71.0667 270° West 122 140 1,100 610 Climbing KA90
Fri 09:11:48 AM 42.3333 -71.1000 236° Southwest 120 138 1,600 589 Climbing KA90
Fri 09:12:49 AM 42.3500 -71.1333 304° West 119 137 2,200 585 Climbing KA90
Fri 09:13:51 AM 42.3500 -71.1833 270° West 117 135 2,800 590 Climbing KA90
Fri 09:14:51 AM 42.3500 -71.2167 270° West 125 144 3,400 564 Climbing KA90
Fri 09:15:48 AM 42.3500 -71.2667 270° West 126 145 3,900 462 Climbing KA90
Fri 09:16:48 AM 42.3500 -71.3167 270° West 137 158 4,300 520 Climbing KA90
Fri 09:17:55 AM 42.3333 -71.3667 246° West 127 146 5,000 614 Climbing KA90
Fri 09:18:55 AM 42.3333 -71.4167 270° West 116 133 5,600 545 Climbing KA90
Fri 09:19:56 AM 42.3167 -71.4500 236° Southwest 119 137 6,100 551 Climbing KA90
Fri 09:20:33 AM 42.3153 -71.4939 268° West 128 147 6,500 680 Climbing Boston Center
Fri 09:21:33 AM 42.3072 -71.5417 257° West 129 148 7,200 567 Climbing Boston Center
Fri 09:22:40 AM 42.3014 -71.5894 261° West 123 142 7,700 422 Climbing Boston Center
Fri 09:23:41 AM 42.2933 -71.6431 259° West 133 153 8,100 209 Climbing Boston Center
Fri 09:24:35 AM 42.2875 -71.6908 261° West 161 185 8,100  Level Boston Center
Fri 09:25:36 AM 42.2775 -71.7583 259° West 167 192 8,100  Level Boston Center
Fri 09:26:37 AM 42.2675 -71.8200 258° West 171 197 8,100  Level Boston Center
Fri 09:27:43 AM 42.2678 -71.8903 270° West 172 198 8,100  Level Boston Center
Fri 09:28:46 AM 42.2700 -71.9519 273° West 168 193 8,100  Level Boston Center
Fri 09:29:45 AM 42.2703 -72.0192 270° West 170 196 8,100  Level Boston Center
Fri 09:30:39 AM 42.2706 -72.0753 270° West 171 197 8,100  Level Boston Center
Fri 09:31:40 AM 42.2728 -72.1428 273° West 171 197 8,100 -49 Level Boston Center
Fri 09:32:41 AM 42.2833 -72.2044 283° West 175 201 8,000  Descending Boston Center
Fri 09:33:42 AM 42.2981 -72.2633 289° West 172 198 8,100 50 Climbing Boston Center
Fri 09:34:42 AM 42.3067 -72.3250 281° West 169 194 8,100 -50 Level Boston Center
Fri 09:35:43 AM 42.3003 -72.3867 262° West 172 198 8,000 -50 Descending Boston Center
Fri 09:36:43 AM 42.3150 -72.4456 289° West 172 198 8,000 50 Level Boston Center
Fri 09:37:44 AM 42.3358 -72.5047 295° West 173 199 8,100 49 Climbing Boston Center
Fri 09:38:45 AM 42.3567 -72.5664 295° West 171 197 8,100  Level Boston Center
Fri 09:39:46 AM 42.3772 -72.6256 295° West 172 198 8,100  Level Boston Center
Fri 09:40:46 AM 42.4000 -72.6847 298° West 171 197 8,100  Level Boston Center
Fri 09:41:47 AM 42.4189 -72.7411 294° West 171 197 8,100  Level Boston Center
Fri 09:42:50 AM 42.4414 -72.8031 296° West 170 196 8,100  Level Boston Center
Fri 09:43:08 AM 42.4478 -72.8200 297° West 169 194 8,100  Level Boston Center
Fri 09:44:09 AM 42.4642 -72.8819 290° West 168 193 8,100 -99 Level Boston Center
Fri 09:45:09 AM 42.4828 -72.9383 294° West 170 196 7,900 -149 Descending Boston Center
Fri 09:46:10 AM 42.5033 -72.9950 296° West 174 200 7,800 -198 Descending Boston Center
Fri 09:47:10 AM 42.5239 -73.0569 294° West 179 206 7,500 -248 Descending Boston Center
Fri 09:48:11 AM 42.5464 -73.1250 294° West 184 212 7,300 -246 Descending Boston Center
Fri 09:49:12 AM 42.5689 -73.1872 296° West 185 213 7,000 -248 Descending Boston Center
Fri 09:50:12 AM 42.5892 -73.2522 293° West 186 214 6,800 -283 Descending Boston Center
Fri 09:51:19 AM 42.6158 -73.3231 297° West 187 215 6,400 -582 Descending Boston Center
Fri 09:52:26 AM 42.6383 -73.3856 296° West 175 201 5,500 -843 Descending Boston Center
Fri 09:53:20 AM 42.6564 -73.4394 295° West 165 190 4,700 -783 Descending Boston Center
Fri 09:54:21 AM 42.6789 -73.4936 299° West 164 189 4,000 -793 Descending Boston Center
Fri 09:55:21 AM 42.6972 -73.5475 295° West 165 190 3,100 -756 Descending Boston Center
Fri 09:56:28 AM 42.7172 -73.6156 292° West 169 194 2,400 -563 Descending Boston Center
Fri 09:57:29 AM 42.7397 -73.6669 301° West 165 190 1,900 -639 Descending Boston Center
Fri 09:58:30 AM 42.7494 -73.7294 282° West 162 186 1,100 -694 Descending Boston Center
Fri 09:59:30 AM 42.7489 -73.7803 269° West 117 135 500 -600 Descending Boston Center
Fri 10:01:00 AM 42.7333 -73.8000 292° West  Level FlightAware Approximate
Fri 10:08:00 AM 42.7491 -73.8020 292° West  Level Estimated
Fri 10:09:00 AM 42.7491 -73.8020 292° West  Level Estimated
Fri 10:10:00 AM 42.7491 -73.8020 292° West  Level Estimated

Login

Don't have an account? Register now (free) for customized features, flight alerts, and more!